Poronajsk, Russia
Current Conditions -  °F | °C
As of 7:30 PM on Monday 20 Oct 2014 (Local Time) from UHSS Reporting Station
Broken Clouds Broken Clouds  
Wind Chill: 57°   Ceiling: 2900
Heat Index: 57°   Visibility: 6mi
Dew Point: 54°   Wind: 9mph
Humidity: 88%   Direction: 180°S
Pressure: 29.77"   Gusts: NA
Location:  49.22°N, 143.12°E
Report Text: UHSS 200830Z 18004MPS 9999 BKN029CB 14/12 Q1008 NOSIG RMK MTOBSC QFE755/1006 19CLRD70
Loading
Personal Weather Stations






























Interactive Weather Map
Tropical Storm Tracking
New forecast layout! Learn more

10-Day Weather Forecast

Advertisements
Track Severe Weather on mobile